Time;durP1;ratioP1;P1;durP2;ratioP2;P2;SDS_P1;SDS_P2;PMS_P1;PMS_P2;Temp;Humidity;BMP_temperature;BMP_pressure;BME280_temperature;BME280_humidity;BME280_pressure;Samples;Min_cycle;Max_cycle;Signal;HPM_P1;HPM_P2
2022/02/11 00:01:02;;;;;;;1.95;1.30;;;;;;;9.09;63.30;100511.72;4930418;28;96978;-86
2022/02/11 00:08:58;;;;;;;2.22;1.27;;;;;;;9.07;62.87;100513.50;4952349;28;97053;-88
2022/02/11 00:11:35;;;;;;;1.42;1.27;;;;;;;9.08;63.01;100515.25;4935974;28;97268;-86
2022/02/11 00:14:03;;;;;;;2.30;1.70;;;;;;;9.01;63.50;100508.44;4951832;28;98337;-86
2022/02/11 00:16:28;;;;;;;1.75;1.25;;;;;;;9.06;63.59;100514.44;4903709;28;100368;-85
2022/02/11 00:18:58;;;;;;;3.25;2.00;;;;;;;8.88;63.59;100507.03;4903102;28;97055;-86
2022/02/11 00:21:24;;;;;;;2.22;1.40;;;;;;;8.96;63.35;100515.53;4917926;28;97577;-86
2022/02/11 00:23:49;;;;;;;2.10;1.60;;;;;;;9.03;63.65;100515.34;4934061;28;101660;-87
2022/02/11 00:26:15;;;;;;;3.22;1.88;;;;;;;8.78;63.70;100470.56;4918707;28;101499;-86
2022/02/11 00:31:49;;;;;;;3.15;1.90;;;;;;;8.97;63.61;100510.28;4920033;28;97139;-86
2022/02/11 00:34:16;;;;;;;3.78;2.08;;;;;;;8.91;63.95;100513.03;4910064;28;100891;-86
2022/02/11 00:36:50;;;;;;;4.03;2.20;;;;;;;8.86;63.87;100503.56;4950974;28;97318;-86
2022/02/11 01:05:36;;;;;;;5.00;3.08;;;;;;;8.96;64.58;100500.72;4922030;28;101467;-85
2022/02/11 01:08:01;;;;;;;8.20;3.13;;;;;;;8.95;64.74;100498.97;4951101;28;100301;-87
2022/02/11 01:10:28;;;;;;;4.78;3.33;;;;;;;8.96;64.60;100492.84;4935249;28;96734;-86
2022/02/11 01:12:54;;;;;;;5.35;3.45;;;;;;;8.72;64.61;100452.41;4917134;28;97232;-86
2022/02/11 01:15:20;;;;;;;4.25;3.17;;;;;;;8.88;64.51;100483.47;4934017;28;101661;-85
2022/02/11 01:17:51;;;;;;;6.78;3.65;;;;;;;8.95;64.56;100496.34;4902672;28;100139;-86
2022/02/11 01:28:20;;;;;;;5.85;4.00;;;;;;;8.93;65.15;100485.06;4932395;28;101214;-87
2022/02/11 01:31:00;;;;;;;4.85;3.67;;;;;;;8.95;65.04;100479.78;4922438;28;96710;-86
2022/02/11 01:36:14;;;;;;;5.68;3.75;;;;;;;8.92;64.91;100477.25;4951245;28;98951;-86
2022/02/11 01:49:50;;;;;;;5.00;3.60;;;;;;;8.82;64.85;100464.38;4920568;28;98452;-87
2022/02/11 02:24:33;;;;;;;5.22;3.75;;;;;;;8.87;64.69;100450.31;4906331;28;96734;-86
2022/02/11 02:27:28;;;;;;;6.78;3.63;;;;;;;8.89;63.86;100433.66;4907935;28;97031;-86
2022/02/11 03:02:01;;;;;;;4.85;2.33;;;;;;;8.70;62.25;100414.13;4912445;28;101599;-86
2022/02/11 03:16:09;;;;;;;6.20;3.28;;;;;;;8.67;62.44;100415.03;4933068;28;99786;-86
2022/02/11 03:34:55;;;;;;;7.55;3.78;;;;;;;8.63;63.58;100409.91;4933102;28;101274;-87
2022/02/11 04:08:19;;;;;;;8.70;4.55;;;;;;;8.49;65.29;100376.22;4930474;28;101239;-87
2022/02/11 04:21:42;;;;;;;5.75;3.78;;;;;;;8.45;66.09;100382.44;4923288;28;96857;-86
2022/02/11 04:27:10;;;;;;;9.48;4.47;;;;;;;8.50;65.92;100367.50;4936539;28;96849;-85
2022/02/11 04:56:39;;;;;;;7.25;4.68;;;;;;;8.13;66.28;100326.50;4919209;28;97077;-86
2022/02/11 05:01:48;;;;;;;8.30;4.88;;;;;;;8.27;66.77;100353.19;4934131;28;101475;-86
2022/02/11 05:04:14;;;;;;;7.82;5.18;;;;;;;8.21;66.75;100342.88;4916736;28;102007;-87
2022/02/11 05:06:40;;;;;;;7.50;4.95;;;;;;;8.23;66.14;100348.06;4918802;28;97212;-87
2022/02/11 05:09:05;;;;;;;9.50;4.53;;;;;;;8.10;66.48;100329.19;4919440;28;96990;-86
2022/02/11 05:11:31;;;;;;;8.57;6.20;;;;;;;7.79;66.69;100290.69;4932444;28;100361;-86
2022/02/11 05:13:57;;;;;;;8.15;4.82;;;;;;;8.11;67.23;100342.22;4921433;28;100765;-86
2022/02/11 05:16:22;;;;;;;10.02;5.20;;;;;;;8.05;67.64;100352.81;4934708;28;97109;-86
2022/02/11 05:18:48;;;;;;;7.18;4.53;;;;;;;8.16;66.92;100357.81;4933213;28;96737;-86
2022/02/11 05:21:13;;;;;;;7.82;4.80;;;;;;;8.16;66.61;100349.97;4951118;28;98621;-86
2022/02/11 05:23:39;;;;;;;7.47;4.50;;;;;;;8.12;66.94;100353.56;4931554;28;101239;-85
2022/02/11 05:26:04;;;;;;;9.25;5.43;;;;;;;7.79;67.47;100303.75;4923631;28;96982;-86
2022/02/11 05:28:30;;;;;;;6.80;4.82;;;;;;;7.91;67.69;100329.63;4918052;28;97192;-89
2022/02/11 05:30:56;;;;;;;6.88;4.90;;;;;;;8.07;67.01;100347.56;4956316;28;98466;-86
2022/02/11 05:33:23;;;;;;;8.68;5.18;;;;;;;7.96;67.09;100329.50;4932055;28;101045;-85
2022/02/11 05:35:48;;;;;;;6.22;4.70;;;;;;;7.92;66.75;100314.81;4935029;28;97120;-86
2022/02/11 05:38:14;;;;;;;7.03;4.63;;;;;;;8.04;66.99;100350.25;4933613;28;96994;-87
2022/02/11 05:40:40;;;;;;;6.95;4.90;;;;;;;7.97;67.84;100357.38;4930958;28;101564;-86
2022/02/11 05:43:05;;;;;;;6.13;4.35;;;;;;;7.79;67.66;100344.72;4928986;28;101366;-86
2022/02/11 05:45:31;;;;;;;10.40;5.10;;;;;;;7.87;68.21;100351.47;4919546;28;96785;-86
2022/02/11 05:47:57;;;;;;;9.63;5.03;;;;;;;7.98;67.61;100371.31;4939510;28;97125;-86
2022/02/11 05:50:22;;;;;;;10.98;5.88;;;;;;;7.97;67.79;100366.97;4917543;28;99830;-85
2022/02/11 05:52:48;;;;;;;9.27;5.72;;;;;;;7.85;67.48;100357.63;4916446;28;99879;-86
2022/02/11 05:55:13;;;;;;;10.70;5.55;;;;;;;7.86;67.81;100359.38;4934042;28;97176;-85
2022/02/11 05:57:39;;;;;;;8.10;5.20;;;;;;;7.81;68.09;100348.16;4933629;28;96829;-86
2022/02/11 06:00:05;;;;;;;7.88;5.20;;;;;;;7.84;67.91;100354.16;4915113;28;100389;-86
2022/02/11 06:02:36;;;;;;;9.75;5.63;;;;;;;7.63;67.82;100320.69;4913035;28;97777;-86
2022/02/11 06:05:02;;;;;;;6.40;4.35;;;;;;;7.86;68.11;100364.59;4933654;28;97201;-87
2022/02/11 06:07:28;;;;;;;6.07;4.43;;;;;;;7.86;67.75;100369.84;4912168;28;97327;-85
2022/02/11 06:09:53;;;;;;;6.03;3.55;;;;;;;7.83;67.19;100367.28;4933868;28;100388;-86
2022/02/11 06:12:19;;;;;;;7.70;3.20;;;;;;;7.80;66.59;100362.13;4918052;28;100040;-86
2022/02/11 06:14:45;;;;;;;6.72;3.63;;;;;;;7.57;66.50;100347.81;4931320;28;97019;-86
2022/02/11 06:17:11;;;;;;;3.90;2.65;;;;;;;7.69;66.41;100365.81;4929668;28;96971;-89
2022/02/11 06:19:36;;;;;;;4.35;2.50;;;;;;;7.69;65.79;100367.56;4933925;28;101658;-86
2022/02/11 06:22:02;;;;;;;5.93;2.60;;;;;;;7.59;66.03;100373.88;4922018;28;100882;-86
2022/02/11 06:24:27;;;;;;;4.63;2.65;;;;;;;7.61;66.01;100366.88;4933624;28;97180;-86
2022/02/11 06:26:53;;;;;;;4.47;2.55;;;;;;;7.64;65.97;100367.66;4933008;28;97227;-85
2022/02/11 06:29:18;;;;;;;4.18;2.35;;;;;;;7.69;65.34;100370.19;4949444;28;98283;-86
2022/02/11 06:31:44;;;;;;;4.22;2.53;;;;;;;7.65;65.93;100372.03;4933968;28;101587;-86
2022/02/11 06:34:10;;;;;;;4.80;2.20;;;;;;;7.65;65.79;100366.78;4930641;28;96785;-86
2022/02/11 06:36:35;;;;;;;4.22;2.45;;;;;;;7.64;65.62;100372.03;4913187;28;96858;-86
2022/02/11 06:39:02;;;;;;;4.10;2.15;;;;;;;7.69;65.54;100373.66;4899998;28;100093;-86
2022/02/11 06:41:27;;;;;;;4.82;2.45;;;;;;;7.75;65.76;100380.50;4931780;28;101364;-87
2022/02/11 06:43:53;;;;;;;4.45;2.20;;;;;;;7.63;65.56;100384.25;4903549;28;96599;-86
2022/02/11 06:46:21;;;;;;;4.60;2.45;;;;;;;7.63;65.79;100386.00;4928291;28;96770;-86
2022/02/11 06:48:48;;;;;;;2.75;1.90;;;;;;;7.32;65.95;100341.34;4896666;28;101468;-86
2022/02/11 06:51:14;;;;;;;4.47;2.75;;;;;;;7.64;65.97;100385.09;4914214;28;100706;-88
2022/02/11 06:53:41;;;;;;;4.03;2.45;;;;;;;7.49;66.38;100381.91;4926970;28;97258;-86
2022/02/11 06:56:06;;;;;;;3.83;2.10;;;;;;;7.52;66.41;100382.75;4919272;28;97327;-88
2022/02/11 06:58:32;;;;;;;5.10;2.50;;;;;;;7.21;66.20;100332.00;4933673;28;98577;-88
2022/02/11 07:00:58;;;;;;;5.47;2.17;;;;;;;7.41;66.54;100369.91;4908893;28;101556;-87
2022/02/11 07:03:24;;;;;;;4.85;2.30;;;;;;;7.54;66.26;100378.34;4940752;28;96660;-86
2022/02/11 07:05:51;;;;;;;4.30;2.58;;;;;;;7.34;66.30;100357.88;4922002;28;97388;-86
2022/02/11 07:08:17;;;;;;;3.30;2.33;;;;;;;7.49;66.72;100378.44;4941511;28;101008;-89
2022/02/11 07:10:43;;;;;;;5.78;2.78;;;;;;;7.39;66.41;100384.75;4915482;28;101199;-90
2022/02/11 07:13:13;;;;;;;5.00;2.80;;;;;;;7.16;66.47;100339.06;4904570;28;98242;-89
2022/02/11 07:15:40;;;;;;;5.03;2.65;;;;;;;7.45;66.40;100374.19;4946894;28;97275;-89
2022/02/11 07:18:05;;;;;;;4.88;3.13;;;;;;;7.24;66.09;100346.72;4913418;28;101185;-89
2022/02/11 07:20:31;;;;;;;8.23;3.70;;;;;;;7.40;66.42;100389.06;4948737;28;97424;-88
2022/02/11 07:22:56;;;;;;;6.25;3.50;;;;;;;7.18;66.77;100372.97;4933143;28;96903;-86
2022/02/11 07:25:22;;;;;;;9.18;3.38;;;;;;;7.29;66.38;100386.66;4932629;28;96968;-86
2022/02/11 07:27:48;;;;;;;7.05;3.22;;;;;;;7.16;66.70;100367.78;4948903;28;98177;-86
2022/02/11 07:30:13;;;;;;;5.53;2.90;;;;;;;7.32;66.47;100377.91;4930303;28;99006;-91
2022/02/11 07:32:39;;;;;;;4.78;2.60;;;;;;;7.28;66.09;100376.28;4932382;28;97271;-87
2022/02/11 07:35:05;;;;;;;4.45;2.72;;;;;;;7.19;66.78;100359.03;4933059;28;96854;-87
2022/02/11 07:37:31;;;;;;;5.70;2.57;;;;;;;7.35;66.51;100383.94;4932107;28;101537;-91
2022/02/11 07:39:58;;;;;;;5.53;3.25;;;;;;;7.36;66.38;100397.84;4948889;28;98100;-84
2022/02/11 07:42:25;;;;;;;5.65;2.92;;;;;;;7.18;66.01;100380.78;4932089;28;96669;-87
2022/02/11 07:44:52;;;;;;;5.00;2.80;;;;;;;7.27;66.21;100391.06;4900992;28;97603;-87
2022/02/11 07:47:18;;;;;;;6.47;3.17;;;;;;;7.18;66.34;100386.88;4925069;28;102146;-83
2022/02/11 07:49:43;;;;;;;5.70;3.25;;;;;;;7.21;66.20;100396.41;4920507;28;101401;-86
2022/02/11 07:52:09;;;;;;;4.50;2.83;;;;;;;7.15;65.98;100413.03;4929042;28;96787;-86
2022/02/11 07:54:34;;;;;;;4.03;2.75;;;;;;;7.19;65.23;100412.09;4949241;28;97942;-86
2022/02/11 07:57:00;;;;;;;4.32;2.22;;;;;;;6.90;65.55;100389.16;4916206;28;97476;-86
2022/02/11 07:59:26;;;;;;;2.33;1.65;;;;;;;7.09;64.96;100426.19;4933179;28;100198;-86
2022/02/11 08:01:51;;;;;;;2.75;1.50;;;;;;;7.01;64.85;100422.84;4923382;28;96787;-86
2022/02/11 08:04:17;;;;;;;3.97;1.48;;;;;;;7.05;64.60;100415.88;4937552;28;97223;-86
2022/02/11 08:06:42;;;;;;;3.55;1.48;;;;;;;7.06;64.27;100402.75;4948285;28;98225;-85
2022/02/11 08:09:08;;;;;;;2.95;1.92;;;;;;;6.80;64.13;100375.38;4937767;28;101213;-86
2022/02/11 08:11:33;;;;;;;3.50;1.30;;;;;;;6.88;64.51;100426.59;4918152;28;97136;-86
2022/02/11 08:13:59;;;;;;;4.68;1.95;;;;;;;6.84;64.77;100424.94;4934946;28;97416;-86
2022/02/11 08:16:25;;;;;;;3.70;1.80;;;;;;;6.79;64.96;100438.03;4933861;28;100553;-86
2022/02/11 08:18:51;;;;;;;3.05;1.52;;;;;;;6.76;65.05;100431.13;4918816;28;101276;-86
2022/02/11 08:21:16;;;;;;;2.92;1.88;;;;;;;6.86;64.34;100433.56;4925347;28;96865;-86
2022/02/11 08:23:42;;;;;;;6.43;2.47;;;;;;;6.70;63.59;100419.94;4928050;28;97914;-86
2022/02/11 08:26:09;;;;;;;3.40;2.53;;;;;;;6.65;63.94;100438.25;4940649;28;98141;-86
2022/02/11 08:28:36;;;;;;;3.30;2.22;;;;;;;6.53;63.74;100409.78;4933188;28;101275;-87
2022/02/11 08:31:02;;;;;;;5.90;2.90;;;;;;;6.60;64.09;100439.22;4931649;28;97292;-87
2022/02/11 08:33:27;;;;;;;4.55;2.65;;;;;;;6.60;63.66;100437.47;4918361;28;96943;-87
2022/02/11 08:35:57;;;;;;;5.25;3.00;;;;;;;6.44;64.32;100436.84;4933963;28;101700;-86
2022/02/11 08:38:24;;;;;;;4.20;2.87;;;;;;;6.38;64.49;100436.09;4950333;28;97803;-87
2022/02/11 08:40:50;;;;;;;6.23;3.30;;;;;;;6.47;64.36;100449.00;4930988;28;97973;-87
2022/02/11 08:43:16;;;;;;;7.25;2.88;;;;;;;6.53;64.16;100454.09;4931972;28;97644;-87
2022/02/11 08:45:42;;;;;;;3.30;2.20;;;;;;;6.56;64.08;100436.66;4913505;28;100593;-89
2022/02/11 08:48:09;;;;;;;5.60;2.67;;;;;;;6.48;64.61;100459.38;4914347;28;101491;-86
2022/02/11 08:50:36;;;;;;;3.85;1.83;;;;;;;6.61;64.07;100457.47;4929816;28;97359;-85
2022/02/11 08:53:03;;;;;;;2.80;1.80;;;;;;;6.59;63.68;100467.06;4899483;28;97326;-88
2022/02/11 08:55:28;;;;;;;2.87;1.63;;;;;;;6.39;63.69;100441.28;4914208;28;100438;-87
2022/02/11 08:57:59;;;;;;;2.43;1.53;;;;;;;6.55;63.88;100471.47;4928592;28;98358;-88
2022/02/11 09:00:27;;;;;;;2.93;1.57;;;;;;;6.45;64.28;100450.75;4912484;28;97379;-88
2022/02/11 09:02:56;;;;;;;3.50;1.77;;;;;;;6.37;64.82;100463.91;4931723;28;97372;-88
2022/02/11 09:05:24;;;;;;;1.63;1.20;;;;;;;6.23;64.82;100434.56;4927088;28;101597;-87
2022/02/11 09:07:53;;;;;;;2.67;1.50;;;;;;;6.52;64.86;100470.66;4934562;28;100180;-88
2022/02/11 09:10:20;;;;;;;2.60;1.60;;;;;;;6.41;64.26;100468.19;4938828;28;97441;-89
2022/02/11 09:12:45;;;;;;;3.40;1.30;;;;;;;6.33;64.08;100452.66;4935924;28;96812;-88
2022/02/11 09:15:11;;;;;;;3.43;1.83;;;;;;;6.30;63.86;100449.22;4928838;28;99956;-84
2022/02/11 09:17:36;;;;;;;2.67;1.40;;;;;;;6.49;64.06;100486.34;4913601;28;101590;-77
2022/02/11 09:20:02;;;;;;;4.43;1.90;;;;;;;6.51;63.71;100479.34;4913094;28;97387;-79
2022/02/11 09:22:30;;;;;;;2.47;1.30;;;;;;;6.55;63.92;100500.16;4929028;28;97350;-78
2022/02/11 09:24:56;;;;;;;2.23;1.53;;;;;;;6.62;64.07;100494.84;4928546;28;99916;-79
2022/02/11 09:27:21;;;;;;;3.47;1.57;;;;;;;6.53;64.07;100501.06;4933624;28;98204;-79
2022/02/11 09:29:47;;;;;;;2.17;1.53;;;;;;;6.52;64.12;100502.81;4928821;28;97474;-79
2022/02/11 09:32:13;;;;;;;3.53;1.80;;;;;;;6.21;64.68;100478.03;4941198;28;96784;-80
2022/02/11 09:34:38;;;;;;;2.73;1.60;;;;;;;6.42;64.97;100508.16;4930478;28;101215;-80
2022/02/11 09:37:05;;;;;;;4.73;1.57;;;;;;;6.49;65.12;100500.25;4935467;28;98324;-78
2022/02/11 09:39:30;;;;;;;3.60;2.03;;;;;;;6.56;64.71;100508.84;4927069;28;97456;-80
2022/02/11 09:41:56;;;;;;;3.13;1.73;;;;;;;6.63;63.93;100512.22;4940441;28;96825;-79
2022/02/11 09:44:24;;;;;;;2.83;1.70;;;;;;;6.63;63.51;100512.22;4927891;28;101503;-79
2022/02/11 09:46:50;;;;;;;2.10;1.43;;;;;;;6.55;64.16;100518.41;4929630;28;100838;-82
2022/02/11 09:49:17;;;;;;;3.07;1.70;;;;;;;6.42;63.71;100492.53;4939365;28;97104;-82
2022/02/11 09:51:44;;;;;;;3.57;2.00;;;;;;;6.35;64.21;100497.81;4945284;28;97225;-83
2022/02/11 09:54:17;;;;;;;3.00;1.83;;;;;;;6.54;63.65;100506.25;4943597;28;101743;-82
2022/02/11 09:56:43;;;;;;;2.17;1.57;;;;;;;6.65;63.56;100518.28;4946316;28;98503;-81
2022/02/11 09:59:09;;;;;;;2.87;1.90;;;;;;;6.54;64.27;100537.56;4941684;28;97465;-82
2022/02/11 10:01:35;;;;;;;3.20;1.60;;;;;;;6.32;64.13;100530.91;4931020;28;97561;-82
2022/02/11 10:04:15;;;;;;;1.90;1.40;;;;;;;6.51;64.59;100562.81;4913885;28;102104;-82
2022/02/11 10:06:42;;;;;;;4.07;2.07;;;;;;;6.32;64.47;100547.41;4908001;28;101914;-82
2022/02/11 10:09:08;;;;;;;4.25;2.00;;;;;;;6.49;64.63;100569.81;4913671;28;96704;-82
2022/02/11 10:11:35;;;;;;;2.75;1.65;;;;;;;6.57;64.39;100574.03;4913692;28;97535;-82
2022/02/11 10:14:26;;;;;;;3.97;1.97;;;;;;;6.63;63.82;100587.84;4940544;28;98048;-83
2022/02/11 10:17:01;;;;;;;5.57;2.50;;;;;;;6.50;64.24;100580.19;4906378;28;100145;-83
2022/02/11 10:19:55;;;;;;;3.00;1.83;;;;;;;6.40;63.83;100552.53;4946175;28;96765;-83
2022/02/11 10:22:28;;;;;;;8.60;4.18;;;;;;;6.64;63.76;100580.03;4944395;28;96814;-76
2022/02/11 10:24:56;;;;;;;9.03;4.13;;;;;;;6.52;64.19;100565.41;4936333;28;99607;-77
2022/02/11 10:27:28;;;;;;;9.35;4.68;;;;;;;6.43;64.78;100578.56;4927042;28;98182;-80
2022/02/11 10:30:08;;;;;;;5.18;3.22;;;;;;;6.36;64.11;100561.25;4946809;28;97464;-84
2022/02/11 10:32:47;;;;;;;6.90;3.53;;;;;;;6.69;64.48;100593.88;4932454;28;97531;-81
2022/02/11 10:35:15;;;;;;;6.83;3.73;;;;;;;6.64;63.45;100590.47;4929302;28;101638;-82
2022/02/11 10:38:09;;;;;;;3.25;2.33;;;;;;;6.75;63.18;100606.84;4901633;28;100539;-85
2022/02/11 10:40:37;;;;;;;4.13;2.70;;;;;;;6.68;63.94;100607.78;4945162;28;97350;-79
2022/02/11 10:43:03;;;;;;;4.88;2.65;;;;;;;6.83;63.38;100627.59;4916577;28;97382;-78
2022/02/11 10:45:37;;;;;;;2.70;2.10;;;;;;;6.68;63.65;100609.53;4929348;28;101835;-80
2022/02/11 10:48:12;;;;;;;2.92;1.70;;;;;;;6.69;63.16;100614.75;4904019;28;101509;-78
2022/02/11 10:50:39;;;;;;;2.95;1.75;;;;;;;6.50;63.35;100598.47;4932266;28;97284;-78
2022/02/11 10:53:05;;;;;;;2.53;1.63;;;;;;;6.52;63.89;100629.75;4914575;28;98274;-79
2022/02/11 10:55:31;;;;;;;3.10;1.70;;;;;;;6.58;63.83;100633.13;4946217;28;97558;-79
2022/02/11 10:57:59;;;;;;;3.67;1.90;;;;;;;6.66;62.99;100645.22;4934960;28;101679;-78
2022/02/11 11:00:26;;;;;;;4.23;1.90;;;;;;;6.40;63.57;100616.84;4922497;28;96805;-78
2022/02/11 11:02:51;;;;;;;2.20;1.90;;;;;;;6.43;63.46;100642.88;4899112;28;97324;-78
2022/02/11 11:05:17;;;;;;;3.47;2.00;;;;;;;6.55;63.35;100643.59;4937508;28;101667;-81
2022/02/11 11:07:43;;;;;;;2.87;1.70;;;;;;;6.43;63.30;100637.66;4926658;28;100792;-78
2022/02/11 11:10:11;;;;;;;2.80;1.53;;;;;;;6.49;63.11;100648.06;4939131;28;97910;-79
2022/02/11 11:12:41;;;;;;;3.17;1.73;;;;;;;6.44;63.79;100650.69;4930784;28;97066;-79
2022/02/11 11:15:07;;;;;;;3.90;2.53;;;;;;;6.30;63.43;100643.03;4926060;28;102597;-78
2022/02/11 11:17:38;;;;;;;7.43;6.73;;;;;;;6.47;63.22;100665.44;4931703;28;101483;-80
2022/02/11 11:20:04;;;;;;;7.03;5.03;;;;;;;6.45;63.14;100651.56;4929375;28;96744;-79
2022/02/11 11:23:04;;;;;;;3.42;2.40;;;;;;;6.42;63.21;100662.03;4948042;28;96792;-91
2022/02/11 11:25:54;;;;;;;4.03;2.83;;;;;;;6.28;63.23;100656.97;4924781;28;97642;-79
2022/02/11 11:28:39;;;;;;;5.50;3.30;;;;;;;6.43;63.48;100662.03;4926807;28;97846;-89
2022/02/11 11:31:20;;;;;;;5.50;3.30;;;;;;;6.43;63.33;100666.34;4928816;28;96863;-92
2022/02/11 11:33:46;;;;;;;4.63;2.90;;;;;;;6.41;62.98;100669.00;4932240;28;97193;-91
2022/02/11 11:36:13;;;;;;;3.97;2.63;;;;;;;6.10;63.89;100640.63;4923126;28;100514;-91
2022/02/11 11:38:39;;;;;;;3.73;2.50;;;;;;;6.40;64.28;100685.53;4929630;28;98265;-93
2022/02/11 11:41:09;;;;;;;4.67;2.60;;;;;;;6.41;63.95;100683.78;4931244;28;96785;-91
2022/02/11 11:43:34;;;;;;;3.07;2.27;;;;;;;6.37;64.45;100689.88;4946286;28;97525;-91
2022/02/11 11:46:18;;;;;;;3.80;2.53;;;;;;;6.25;64.46;100681.31;4930260;28;98605;-91
2022/02/11 11:48:52;;;;;;;4.13;2.67;;;;;;;6.16;65.24;100663.16;4934600;28;97947;-92
2022/02/11 11:51:17;;;;;;;4.63;3.23;;;;;;;6.44;64.96;100702.00;4910880;28;97414;-91
2022/02/11 11:53:43;;;;;;;4.43;2.37;;;;;;;6.34;65.19;100685.56;4957382;28;97147;-91
2022/02/11 11:56:32;;;;;;;6.73;2.70;;;;;;;6.46;64.94;100693.28;4930263;28;98768;-91
2022/02/11 11:59:12;;;;;;;6.23;2.50;;;;;;;6.41;64.93;100695.06;4929340;28;101184;-91
2022/02/11 12:01:53;;;;;;;5.10;2.60;;;;;;;6.50;65.05;100702.78;4945718;28;97258;-90
2022/02/11 12:04:24;;;;;;;5.63;3.40;;;;;;;6.31;65.32;100676.06;4912820;28;97675;-90
2022/02/11 12:06:56;;;;;;;5.50;3.10;;;;;;;6.36;65.47;100686.44;4901549;28;100722;-90
2022/02/11 12:09:24;;;;;;;5.72;2.63;;;;;;;6.55;65.95;100715.78;4909702;28;101364;-90
2022/02/11 12:11:55;;;;;;;4.13;2.60;;;;;;;6.55;65.55;100706.22;4928538;28;97121;-90
2022/02/11 12:14:20;;;;;;;4.70;2.60;;;;;;;6.61;65.79;100709.63;4928331;28;96830;-90
2022/02/11 12:16:47;;;;;;;3.70;1.90;;;;;;;6.67;64.96;100720.84;4930108;28;101363;-89
2022/02/11 12:19:13;;;;;;;5.27;3.23;;;;;;;6.66;65.08;100720.84;4930823;28;99888;-90
2022/02/11 12:21:39;;;;;;;3.80;2.38;;;;;;;6.66;65.11;100720.84;4919542;28;97301;-90
2022/02/11 12:29:33;;;;;;;6.53;1.93;;;;;;;6.55;65.80;100728.81;4931469;28;97981;-92
2022/02/11 12:32:01;;;;;;;3.90;2.00;;;;;;;6.47;65.41;100720.22;4944851;28;97542;-92
2022/02/11 12:34:26;;;;;;;4.80;1.93;;;;;;;6.55;65.72;100732.28;4944333;28;97214;-93
2022/02/11 12:36:52;;;;;;;4.93;2.28;;;;;;;6.64;65.38;100723.50;4926724;28;98509;-91
2022/02/11 12:39:17;;;;;;;4.30;2.65;;;;;;;6.61;65.70;100736.59;4928983;28;97045;-92
2022/02/11 12:41:48;;;;;;;5.15;2.90;;;;;;;6.64;65.66;100743.50;4934537;28;96728;-92
2022/02/11 12:44:33;;;;;;;3.47;2.30;;;;;;;6.62;65.07;100751.34;4933418;28;97463;-90
2022/02/11 12:46:59;;;;;;;6.50;3.20;;;;;;;6.60;65.05;100752.25;4939685;28;101861;-78
2022/02/11 12:49:26;;;;;;;5.75;2.90;;;;;;;6.56;64.73;100759.25;4925444;28;101326;-78
2022/02/11 12:51:54;;;;;;;5.90;2.70;;;;;;;6.37;65.01;100740.31;4949205;28;96847;-78
2022/02/11 12:54:20;;;;;;;6.72;3.13;;;;;;;6.35;65.36;100742.06;4929384;28;97316;-79
2022/02/11 12:56:46;;;;;;;4.80;3.20;;;;;;;6.46;65.59;100755.88;4931667;28;100820;-81
2022/02/11 12:59:12;;;;;;;4.07;2.70;;;;;;;6.25;64.84;100717.81;4932965;28;97988;-79
2022/02/11 13:01:38;;;;;;;4.63;2.97;;;;;;;6.37;65.00;100742.03;4928632;28;97467;-79
2022/02/11 13:04:03;;;;;;;5.70;2.90;;;;;;;6.43;65.47;100749.81;4935840;28;98239;-79
2022/02/11 13:06:35;;;;;;;6.03;3.28;;;;;;;6.28;65.36;100743.00;4948598;28;97715;-79
2022/02/11 13:09:06;;;;;;;4.93;2.65;;;;;;;6.37;64.91;100760.28;4886506;28;101473;-79
2022/02/11 13:11:32;;;;;;;4.78;2.97;;;;;;;6.38;65.30;100762.03;4921337;28;96838;-79
2022/02/11 13:14:06;;;;;;;4.67;2.80;;;;;;;6.36;65.44;100777.69;4914749;28;96970;-79
2022/02/11 13:16:34;;;;;;;6.03;3.05;;;;;;;6.32;65.57;100782.06;4911639;28;102179;-79
2022/02/11 13:19:17;;;;;;;4.37;2.93;;;;;;;6.27;65.48;100781.25;4907007;28;101210;-79
2022/02/11 13:21:43;;;;;;;6.50;3.20;;;;;;;6.37;66.08;100797.69;4910726;28;96748;-81
2022/02/11 13:24:08;;;;;;;3.67;2.70;;;;;;;6.32;66.26;100799.47;4898148;28;96869;-79
2022/02/11 13:26:34;;;;;;;3.78;2.20;;;;;;;6.29;65.96;100799.50;4882734;28;101604;-79
2022/02/11 13:29:00;;;;;;;3.90;2.00;;;;;;;6.27;65.31;100796.88;4909624;28;101061;-79
2022/02/11 13:31:26;;;;;;;3.60;2.00;;;;;;;6.18;65.40;100796.13;4922741;28;96915;-84
2022/02/11 13:34:01;;;;;;;2.60;1.60;;;;;;;6.27;65.55;100811.69;4903593;28;96906;-79
2022/02/11 13:36:27;;;;;;;3.07;1.80;;;;;;;6.21;65.51;100816.94;4916469;28;101611;-82
2022/02/11 13:38:52;;;;;;;2.93;1.67;;;;;;;6.28;65.39;100829.94;4908728;28;97916;-82
2022/02/11 13:41:25;;;;;;;3.53;1.80;;;;;;;6.23;65.11;100829.09;4926750;28;96777;-84
2022/02/11 13:43:56;;;;;;;2.40;1.87;;;;;;;6.12;65.64;100800.50;4920412;28;96878;-84
2022/02/11 13:46:29;;;;;;;2.33;1.40;;;;;;;6.38;65.52;100835.91;4915205;28;97777;-84
2022/02/11 13:48:57;;;;;;;4.50;2.23;;;;;;;6.16;65.64;100829.16;4924856;28;98032;-83
2022/02/11 13:51:23;;;;;;;3.83;2.33;;;;;;;6.24;65.53;100843.84;4917585;28;96875;-84
2022/02/11 13:53:52;;;;;;;3.30;2.10;;;;;;;6.13;65.60;100811.78;4894400;28;96934;-83
2022/02/11 13:56:22;;;;;;;3.00;2.13;;;;;;;6.28;65.03;100850.78;4904869;28;97501;-84
2022/02/11 13:59:08;;;;;;;3.63;2.13;;;;;;;6.24;65.58;100832.56;4919605;28;98614;-84
2022/02/11 14:01:37;;;;;;;5.63;2.70;;;;;;;6.34;65.29;100866.38;4897339;28;97256;-83
2022/02/11 14:04:08;;;;;;;6.33;2.60;;;;;;;6.36;65.14;100855.91;4908901;28;97182;-83
2022/02/11 14:06:36;;;;;;;5.47;2.75;;;;;;;6.33;64.94;100851.59;4917043;28;101637;-83
2022/02/11 14:09:10;;;;;;;5.67;2.80;;;;;;;6.41;64.66;100879.38;4911387;28;101631;-83
2022/02/11 14:11:38;;;;;;;8.10;2.80;;;;;;;6.47;65.08;100869.75;4919271;28;97003;-85
2022/02/11 14:14:17;;;;;;;3.43;2.47;;;;;;;6.54;64.13;100874.03;4916208;28;97092;-84
2022/02/11 14:16:46;;;;;;;6.23;2.40;;;;;;;6.56;65.08;100874.00;4914289;28;101746;-84
2022/02/11 14:19:24;;;;;;;4.72;2.20;;;;;;;6.58;64.09;100874.88;4916453;28;101289;-83
2022/02/11 14:21:54;;;;;;;4.73;2.00;;;;;;;6.48;63.78;100870.59;4915673;28;97137;-83
2022/02/11 14:24:20;;;;;;;3.80;1.87;;;;;;;6.64;64.09;100897.44;4909536;28;97157;-83
2022/02/11 14:26:47;;;;;;;3.00;2.33;;;;;;;6.60;63.31;100887.88;4897046;28;99407;-83
2022/02/11 14:29:12;;;;;;;4.00;2.30;;;;;;;6.29;63.76;100844.69;4896719;28;102483;-83
2022/02/11 14:31:39;;;;;;;4.70;2.27;;;;;;;6.52;63.62;100888.84;4912995;28;97078;-83
2022/02/11 14:34:05;;;;;;;5.10;2.55;;;;;;;6.38;63.87;100875.03;4909297;28;96989;-85
2022/02/11 14:36:32;;;;;;;4.40;2.93;;;;;;;6.51;63.70;100891.44;4899323;28;101460;-82
2022/02/11 14:38:58;;;;;;;4.67;2.30;;;;;;;6.50;63.69;100892.31;4911789;28;101907;-83
2022/02/11 14:44:08;;;;;;;3.20;1.87;;;;;;;6.47;63.16;100897.56;4897828;28;97043;-82
2022/02/11 14:46:35;;;;;;;3.95;1.80;;;;;;;6.43;63.67;100896.75;4907163;28;98064;-82
2022/02/11 14:49:01;;;;;;;4.93;2.50;;;;;;;6.37;63.41;100898.50;4879197;28;101629;-80
2022/02/11 14:51:26;;;;;;;6.23;2.80;;;;;;;6.45;63.59;100902.78;4897678;28;96742;-82
2022/02/11 14:53:52;;;;;;;5.20;2.40;;;;;;;6.37;63.17;100904.63;4908519;28;97141;-81
2022/02/11 14:56:18;;;;;;;5.00;2.40;;;;;;;6.37;63.37;100902.00;4930304;28;100916;-85
2022/02/11 14:58:43;;;;;;;4.40;2.10;;;;;;;6.19;63.74;100896.91;4907463;28;97897;-85
2022/02/11 15:01:10;;;;;;;4.87;2.40;;;;;;;6.27;63.65;100911.63;4909614;28;97235;-86
2022/02/11 15:03:36;;;;;;;5.07;2.67;;;;;;;6.29;63.66;100909.00;4905482;28;97021;-84
2022/02/11 15:06:01;;;;;;;5.50;2.23;;;;;;;6.17;64.04;100920.38;4902406;28;101530;-85
2022/02/11 15:08:27;;;;;;;4.03;2.40;;;;;;;6.26;63.56;100909.91;4918917;28;101438;-85
2022/02/11 15:10:52;;;;;;;6.03;2.30;;;;;;;6.23;63.69;100916.88;4934496;28;97375;-85
2022/02/11 15:13:18;;;;;;;4.27;2.40;;;;;;;6.24;63.68;100918.59;4935535;28;96893;-85
2022/02/11 15:15:44;;;;;;;5.37;2.90;;;;;;;6.17;63.80;100914.28;4935611;28;100877;-85
2022/02/11 15:18:10;;;;;;;4.50;2.87;;;;;;;6.03;63.41;100898.75;4934609;28;99097;-85
2022/02/11 15:20:40;;;;;;;7.13;3.50;;;;;;;5.95;64.39;100896.19;4919070;28;97394;-87
2022/02/11 15:23:06;;;;;;;4.00;2.70;;;;;;;5.93;64.68;100897.94;4926613;28;96990;-85
2022/02/11 15:25:31;;;;;;;6.73;3.13;;;;;;;6.08;64.49;100923.06;4922798;28;101589;-86
2022/02/11 15:27:57;;;;;;;8.73;3.87;;;;;;;5.94;64.07;100899.69;4929158;28;101087;-85